createdAt,value
2024-04-25T00:00:38.238Z,4.91
2024-04-25T00:03:05.515Z,5.06
2024-04-25T00:05:32.506Z,4.93
2024-04-25T00:07:59.305Z,5.03
2024-04-25T00:10:26.045Z,5.09
2024-04-25T00:12:52.784Z,4.99
2024-04-25T00:15:19.517Z,5.13
2024-04-25T00:17:46.593Z,4.99
2024-04-25T00:20:13.561Z,5.13
2024-04-25T00:22:40.559Z,5.15
2024-04-25T00:25:07.849Z,5.11
2024-04-25T00:27:35.434Z,4.97
2024-04-25T00:30:02.184Z,5.22
2024-04-25T00:32:29.302Z,4.96
2024-04-25T00:34:59.032Z,4.80
2024-04-25T00:37:26.796Z,4.91
2024-04-25T00:39:56.230Z,5.11
2024-04-25T00:42:24.224Z,4.94
2024-04-25T00:44:51.672Z,4.81
2024-04-25T00:47:23.401Z,4.69
2024-04-25T00:49:52.790Z,4.71
2024-04-25T00:52:21.627Z,4.69
2024-04-25T00:54:48.690Z,4.77
2024-04-25T00:57:16.967Z,4.63
2024-04-25T00:59:47.978Z,4.83
2024-04-25T01:02:16.702Z,4.65
2024-04-25T01:04:45.031Z,4.65
2024-04-25T01:07:11.773Z,4.67
2024-04-25T01:09:38.583Z,4.59
2024-04-25T01:12:06.175Z,4.71
2024-04-25T01:14:33.688Z,4.70
2024-04-25T01:17:00.876Z,4.56
2024-04-25T01:19:27.624Z,4.57
2024-04-25T01:21:54.431Z,4.67
2024-04-25T01:24:29.312Z,4.61
2024-04-25T01:26:57.637Z,4.74
2024-04-25T01:29:25.951Z,4.79
2024-04-25T01:31:53.882Z,4.57
2024-04-25T01:34:20.835Z,4.49
2024-04-25T01:36:47.669Z,4.65
2024-04-25T01:39:15.092Z,4.46
2024-04-25T01:41:42.118Z,4.68
2024-04-25T01:44:08.913Z,4.71
2024-04-25T01:46:36.273Z,4.61
2024-04-25T01:49:03.092Z,4.99
2024-04-25T01:51:29.935Z,4.73
2024-04-25T01:53:56.727Z,4.84
2024-04-25T01:56:23.695Z,4.89
2024-04-25T01:58:54.008Z,4.69
2024-04-25T02:01:21.175Z,4.89
2024-04-25T02:03:47.933Z,4.89
2024-04-25T02:06:14.741Z,4.75
2024-04-25T02:08:41.885Z,4.73
2024-04-25T02:11:11.704Z,4.53
2024-04-25T02:13:38.506Z,4.57
2024-04-25T02:16:05.779Z,4.48
2024-04-25T02:18:32.625Z,4.33
2024-04-25T02:21:17.837Z,4.49
2024-04-25T02:24:03.409Z,4.46
2024-04-25T02:26:30.187Z,4.35
2024-04-25T02:28:56.987Z,4.44
2024-04-25T02:31:29.718Z,4.39
2024-04-25T02:33:56.504Z,4.42
2024-04-25T02:36:23.231Z,4.12
2024-04-25T02:38:50.012Z,4.27
2024-04-25T02:41:16.854Z,4.44
2024-04-25T02:43:43.788Z,4.39
2024-04-25T02:46:10.789Z,4.29
2024-04-25T02:48:37.632Z,4.49
2024-04-25T02:51:04.800Z,4.23
2024-04-25T02:53:32.785Z,4.40
2024-04-25T02:56:00.830Z,4.21
2024-04-25T02:58:27.591Z,4.19
2024-04-25T03:01:04.075Z,4.40
2024-04-25T03:03:31.184Z,4.50
2024-04-25T03:05:59.634Z,4.48
2024-04-25T03:08:26.613Z,4.32
2024-04-25T03:10:53.478Z,4.43
2024-04-25T03:13:20.301Z,4.39
2024-04-25T03:15:47.389Z,4.13
2024-04-25T03:18:14.199Z,4.31
2024-04-25T03:20:41.119Z,4.29
2024-04-25T03:23:07.929Z,3.96
2024-04-25T03:25:34.701Z,4.09
2024-04-25T03:28:01.497Z,4.02
2024-04-25T03:30:28.265Z,3.87
2024-04-25T03:32:56.500Z,3.95
2024-04-25T03:35:23.350Z,3.77
2024-04-25T03:37:50.172Z,3.87
2024-04-25T03:40:17.177Z,3.63
2024-04-25T03:42:43.971Z,3.79
2024-04-25T03:45:10.812Z,3.78
2024-04-25T03:47:37.659Z,3.50
2024-04-25T03:50:04.857Z,3.61
2024-04-25T03:52:31.585Z,3.50
2024-04-25T03:54:58.347Z,3.27
2024-04-25T03:57:25.099Z,3.33
2024-04-25T03:59:51.925Z,3.17
2024-04-25T04:02:18.790Z,2.94
2024-04-25T04:04:45.973Z,3.06
2024-04-25T04:07:12.673Z,3.14
2024-04-25T04:09:39.887Z,3.10
2024-04-25T04:12:06.851Z,3.07
2024-04-25T04:14:33.643Z,3.15
2024-04-25T04:17:00.429Z,3.11
2024-04-25T04:19:27.228Z,3.14
2024-04-25T04:21:54.407Z,3.21
2024-04-25T04:24:21.162Z,3.02
2024-04-25T04:26:47.996Z,3.06
2024-04-25T04:29:15.152Z,3.00
2024-04-25T04:31:42.132Z,3.28
2024-04-25T04:34:09.139Z,3.48
2024-04-25T04:36:36.283Z,3.40
2024-04-25T04:39:03.929Z,3.62
2024-04-25T04:41:30.831Z,3.78
2024-04-25T04:43:59.421Z,3.56
2024-04-25T04:46:26.596Z,3.61
2024-04-25T04:48:53.551Z,3.88
2024-04-25T04:51:20.598Z,3.87
2024-04-25T04:53:50.096Z,4.18
2024-04-25T04:56:19.403Z,3.87
2024-04-25T04:58:47.730Z,4.04
2024-04-25T05:01:14.803Z,3.72
2024-04-25T05:03:41.771Z,3.73
2024-04-25T05:06:10.559Z,3.96
2024-04-25T05:08:37.940Z,3.83
2024-04-25T05:11:05.082Z,3.57
2024-04-25T05:13:31.889Z,3.83
2024-04-25T05:15:58.721Z,3.77
2024-04-25T05:18:25.679Z,3.64
2024-04-25T05:20:52.467Z,3.81
2024-04-25T05:23:19.386Z,4.28
2024-04-25T05:25:46.253Z,4.64
2024-04-25T05:28:13.040Z,4.45
2024-04-25T05:30:39.765Z,4.57
2024-04-25T05:33:07.082Z,4.87
2024-04-25T05:35:35.618Z,4.74
2024-04-25T05:38:02.481Z,4.86
2024-04-25T05:40:30.504Z,4.80
2024-04-25T05:42:57.361Z,4.60
2024-04-25T05:45:24.200Z,4.60
2024-04-25T05:47:51.623Z,4.99
2024-04-25T05:50:18.664Z,5.09
2024-04-25T05:52:45.447Z,4.88
2024-04-25T05:55:12.243Z,5.13
2024-04-25T05:57:38.995Z,5.47
2024-04-25T06:00:06.629Z,5.73
2024-04-25T06:02:33.462Z,6.04
2024-04-25T06:05:00.411Z,5.60
2024-04-25T06:07:27.192Z,5.69
2024-04-25T06:09:54.718Z,5.45
2024-04-25T06:12:21.719Z,5.40
2024-04-25T06:14:48.842Z,5.85
2024-04-25T06:17:15.874Z,5.34
2024-04-25T06:19:47.116Z,5.62
2024-04-25T06:22:14.907Z,5.47
2024-04-25T06:24:41.803Z,5.59
2024-04-25T06:27:09.030Z,5.49
2024-04-25T06:29:35.904Z,5.78
2024-04-25T06:32:02.743Z,5.98
2024-04-25T06:34:31.729Z,5.96
2024-04-25T06:36:58.652Z,5.78
2024-04-25T06:39:25.407Z,5.54
2024-04-25T06:41:56.971Z,5.65
2024-04-25T06:44:30.018Z,5.63
2024-04-25T06:47:02.830Z,5.91
2024-04-25T06:49:29.709Z,5.67
2024-04-25T06:51:56.723Z,5.73
2024-04-25T06:54:25.131Z,5.92
2024-04-25T06:56:53.200Z,5.38
2024-04-25T06:59:20.776Z,5.86
2024-04-25T07:01:50.646Z,5.55
2024-04-25T07:04:18.339Z,5.83
2024-04-25T07:06:45.268Z,5.74
2024-04-25T07:09:12.088Z,5.55
2024-04-25T07:11:39.131Z,5.65
2024-04-25T07:14:06.093Z,5.65
2024-04-25T07:16:32.950Z,5.46
2024-04-25T07:18:59.841Z,5.20
2024-04-25T07:21:29.275Z,5.10
2024-04-25T07:23:58.521Z,5.51
2024-04-25T07:26:27.150Z,5.17
2024-04-25T07:28:55.953Z,5.29
2024-04-25T07:31:22.883Z,5.48
2024-04-25T07:33:49.794Z,6.13
2024-04-25T07:36:22.470Z,6.06
2024-04-25T07:38:49.478Z,5.56
2024-04-25T07:41:16.411Z,6.12
2024-04-25T07:43:43.208Z,6.23
2024-04-25T07:46:11.118Z,6.37
2024-04-25T07:48:38.082Z,6.51
2024-04-25T07:51:05.035Z,6.30
2024-04-25T07:53:31.941Z,6.49
2024-04-25T07:55:58.833Z,7.18
2024-04-25T07:58:25.616Z,6.51
2024-04-25T08:00:52.476Z,7.12
2024-04-25T08:03:20.223Z,6.75
2024-04-25T08:05:48.926Z,7.37
2024-04-25T08:08:16.560Z,6.63
2024-04-25T08:10:45.695Z,7.72
2024-04-25T08:13:12.729Z,7.40
2024-04-25T08:15:39.420Z,7.49
2024-04-25T08:18:06.507Z,7.96
2024-04-25T08:20:34.492Z,8.97
2024-04-25T08:23:02.159Z,8.10
2024-04-25T08:25:28.940Z,8.17
2024-04-25T08:27:56.905Z,8.54
2024-04-25T08:30:26.027Z,9.14
2024-04-25T08:32:54.493Z,8.70
2024-04-25T08:35:22.121Z,8.57
2024-04-25T08:37:48.926Z,8.43
2024-04-25T08:40:15.778Z,7.97
2024-04-25T08:42:46.037Z,8.99
2024-04-25T08:45:13.203Z,9.54
2024-04-25T08:47:42.182Z,9.26
2024-04-25T08:50:11.846Z,8.05
2024-04-25T08:52:42.635Z,7.86
2024-04-25T08:55:12.866Z,7.97
2024-04-25T08:57:39.855Z,8.02
2024-04-25T09:00:07.169Z,8.76
2024-04-25T09:02:37.029Z,9.79
2024-04-25T09:05:04.433Z,10.37
2024-04-25T09:07:31.382Z,9.96
2024-04-25T09:09:58.378Z,9.20
2024-04-25T09:12:28.201Z,8.69
2024-04-25T09:14:55.367Z,9.03
2024-04-25T09:17:23.067Z,8.85
2024-04-25T09:19:50.121Z,8.36
2024-04-25T09:22:17.697Z,8.33
2024-04-25T09:24:44.548Z,8.35
2024-04-25T09:27:12.870Z,9.04
2024-04-25T09:29:39.646Z,9.57
2024-04-25T09:32:09.591Z,9.42
2024-04-25T09:34:37.196Z,9.15
2024-04-25T09:37:04.385Z,9.45
2024-04-25T09:39:31.104Z,8.44
2024-04-25T09:41:58.216Z,8.79
2024-04-25T09:44:25.432Z,9.48
2024-04-25T09:46:59.623Z,9.35
2024-04-25T09:49:32.756Z,9.53
2024-04-25T09:52:19.164Z,10.26
2024-04-25T09:54:48.684Z,9.25
2024-04-25T09:57:20.515Z,9.39
2024-04-25T10:00:07.550Z,9.97
2024-04-25T10:02:36.293Z,10.24
2024-04-25T10:05:03.536Z,9.91
2024-04-25T10:07:31.511Z,9.39
2024-04-25T10:09:59.320Z,8.03
2024-04-25T10:12:27.396Z,8.61
2024-04-25T10:15:02.110Z,9.97
2024-04-25T10:17:31.130Z,10.29
2024-04-25T10:20:00.417Z,9.42
2024-04-25T10:22:28.495Z,9.72
2024-04-25T10:25:04.998Z,9.91
2024-04-25T10:27:32.303Z,10.00
2024-04-25T10:30:07.028Z,9.82
2024-04-25T10:32:37.362Z,9.62
2024-04-25T10:35:04.529Z,9.71
2024-04-25T10:37:40.410Z,10.71
2024-04-25T10:40:15.278Z,11.43
2024-04-25T10:42:42.637Z,10.76
2024-04-25T10:45:09.611Z,11.29
2024-04-25T10:47:36.525Z,11.56
2024-04-25T10:50:03.809Z,11.39
2024-04-25T10:52:30.913Z,11.83
2024-04-25T10:54:57.867Z,11.68
2024-04-25T10:57:28.912Z,12.21
2024-04-25T10:59:58.765Z,11.26
2024-04-25T11:02:35.193Z,10.39
2024-04-25T11:05:02.499Z,10.68
2024-04-25T11:07:29.592Z,10.76
2024-04-25T11:09:57.061Z,9.54
2024-04-25T11:12:24.018Z,9.00
2024-04-25T11:14:50.881Z,8.66
2024-04-25T11:17:17.639Z,9.30
2024-04-25T11:19:49.625Z,9.66
2024-04-25T11:22:29.866Z,10.18
2024-04-25T11:25:20.551Z,9.97
2024-04-25T11:27:49.510Z,9.59
2024-04-25T11:30:16.454Z,9.00
2024-04-25T11:32:46.899Z,8.21
2024-04-25T11:35:17.208Z,7.71
2024-04-25T11:37:44.016Z,7.74
2024-04-25T11:40:11.713Z,7.93
2024-04-25T11:42:38.523Z,7.92
2024-04-25T11:45:06.951Z,8.14
2024-04-25T11:47:33.893Z,8.59
2024-04-25T11:50:00.751Z,8.72
2024-04-25T11:52:27.483Z,9.03
2024-04-25T11:54:54.249Z,9.07
2024-04-25T11:57:21.175Z,9.67
2024-04-25T11:59:48.081Z,9.74
2024-04-25T12:02:16.094Z,10.38
2024-04-25T12:04:43.195Z,10.16
2024-04-25T12:07:10.183Z,9.95
2024-04-25T12:09:36.942Z,9.79
2024-04-25T12:12:03.703Z,9.72
2024-04-25T12:14:30.513Z,9.67
2024-04-25T12:16:57.352Z,9.12
2024-04-25T12:19:24.325Z,9.35
2024-04-25T12:21:51.301Z,9.31
2024-04-25T12:24:18.074Z,9.01
2024-04-25T12:26:46.039Z,9.47
2024-04-25T12:29:12.963Z,9.44
2024-04-25T12:31:39.796Z,8.87
2024-04-25T12:34:09.623Z,8.68
2024-04-25T12:36:38.407Z,8.93
2024-04-25T12:39:06.002Z,8.80
2024-04-25T12:41:32.840Z,8.91
2024-04-25T12:43:59.599Z,8.68
2024-04-25T12:46:26.394Z,9.12
2024-04-25T12:48:53.225Z,9.17
2024-04-25T12:51:21.807Z,9.44
2024-04-25T12:53:48.811Z,9.75
2024-04-25T12:56:15.862Z,9.54
2024-04-25T12:58:42.820Z,9.06
2024-04-25T13:01:10.176Z,9.36
2024-04-25T13:03:37.002Z,9.47
2024-04-25T13:06:03.834Z,9.30
2024-04-25T13:08:30.604Z,9.38
2024-04-25T13:10:57.438Z,9.15
2024-04-25T13:13:26.603Z,8.94
2024-04-25T13:15:53.515Z,9.39
2024-04-25T13:18:20.441Z,10.22
2024-04-25T13:20:47.562Z,10.20
2024-04-25T13:23:14.509Z,9.40
2024-04-25T13:25:41.239Z,9.45
2024-04-25T13:28:08.047Z,9.70
2024-04-25T13:30:34.868Z,10.07
2024-04-25T13:33:01.989Z,9.60
2024-04-25T13:35:28.873Z,9.09
2024-04-25T13:37:58.024Z,10.03
2024-04-25T13:40:26.374Z,9.35
2024-04-25T13:42:53.686Z,8.97
2024-04-25T13:45:20.590Z,9.87
2024-04-25T13:47:47.620Z,9.57
2024-04-25T13:50:18.249Z,9.65
2024-04-25T13:52:45.432Z,9.86
2024-04-25T13:55:12.248Z,9.78
2024-04-25T13:57:40.268Z,9.81
2024-04-25T14:00:07.713Z,9.65
2024-04-25T14:02:39.238Z,10.20
2024-04-25T14:05:06.266Z,9.89
2024-04-25T14:07:33.091Z,10.26
2024-04-25T14:10:01.104Z,10.10
2024-04-25T14:12:29.811Z,10.53
2024-04-25T14:14:57.150Z,9.94
2024-04-25T14:17:24.111Z,9.86
2024-04-25T14:19:50.930Z,9.83
2024-04-25T14:22:17.616Z,9.80
2024-04-25T14:24:47.057Z,9.59
2024-04-25T14:27:32.515Z,9.75
2024-04-25T14:29:59.413Z,9.71
2024-04-25T14:32:26.289Z,9.97
2024-04-25T14:34:53.397Z,10.36
2024-04-25T14:37:21.297Z,11.05
2024-04-25T14:39:48.136Z,10.91
2024-04-25T14:42:14.938Z,10.71
2024-04-25T14:44:41.858Z,10.60
2024-04-25T14:47:09.172Z,10.63
2024-04-25T14:49:36.031Z,10.38
2024-04-25T14:52:02.783Z,10.59
2024-04-25T14:54:29.800Z,9.93
2024-04-25T14:56:56.511Z,10.20
2024-04-25T14:59:25.202Z,9.79
2024-04-25T15:01:53.254Z,10.05
2024-04-25T15:04:20.202Z,10.60
2024-04-25T15:06:47.254Z,10.22
2024-04-25T15:09:14.174Z,10.04
2024-04-25T15:11:40.939Z,10.31
2024-04-25T15:14:07.710Z,10.42
2024-04-25T15:16:35.315Z,10.20
2024-04-25T15:19:02.124Z,10.11
2024-04-25T15:21:29.924Z,10.09
2024-04-25T15:23:56.870Z,10.29
2024-04-25T15:26:23.739Z,10.08
2024-04-25T15:28:50.436Z,9.98
2024-04-25T15:31:20.684Z,9.47
2024-04-25T15:33:47.562Z,9.65
2024-04-25T15:36:14.396Z,9.68
2024-04-25T15:38:41.215Z,9.60
2024-04-25T15:41:09.920Z,9.72
2024-04-25T15:43:38.303Z,9.53
2024-04-25T15:46:05.414Z,9.89
2024-04-25T15:48:32.319Z,10.26
2024-04-25T15:50:59.240Z,10.71
2024-04-25T15:53:26.055Z,10.49
2024-04-25T15:55:55.938Z,9.86
2024-04-25T15:58:24.014Z,9.82
2024-04-25T16:00:50.841Z,10.20
2024-04-25T16:03:17.664Z,9.96
2024-04-25T16:05:44.510Z,9.82
2024-04-25T16:08:12.472Z,10.12
2024-04-25T16:10:39.272Z,9.98
2024-04-25T16:13:06.159Z,9.66
2024-04-25T16:15:34.606Z,9.49
2024-04-25T16:18:01.558Z,9.22
2024-04-25T16:20:28.430Z,9.25
2024-04-25T16:22:56.255Z,9.10
2024-04-25T16:25:23.053Z,9.31
2024-04-25T16:27:49.844Z,9.52
2024-04-25T16:30:16.635Z,10.05
2024-04-25T16:32:43.629Z,10.52
2024-04-25T16:35:10.829Z,10.69
2024-04-25T16:37:37.613Z,10.18
2024-04-25T16:40:04.935Z,9.38
2024-04-25T16:42:31.681Z,9.49
2024-04-25T16:44:58.526Z,9.33
2024-04-25T16:47:25.479Z,9.25
2024-04-25T16:49:52.384Z,9.18
2024-04-25T16:52:19.413Z,9.28
2024-04-25T16:54:46.221Z,9.13
2024-04-25T16:57:12.969Z,9.11
2024-04-25T16:59:39.945Z,9.24
2024-04-25T17:02:07.448Z,9.30
2024-04-25T17:04:35.992Z,9.03
2024-04-25T17:07:02.866Z,9.39
2024-04-25T17:09:29.845Z,9.42
2024-04-25T17:11:56.666Z,9.12
2024-04-25T17:14:25.267Z,9.15
2024-04-25T17:16:52.218Z,9.08
2024-04-25T17:19:18.895Z,8.87
2024-04-25T17:21:45.760Z,8.61
2024-04-25T17:24:13.642Z,8.67
2024-04-25T17:26:41.906Z,8.62
2024-04-25T17:29:09.438Z,8.65
2024-04-25T17:31:38.273Z,8.67
2024-04-25T17:34:05.955Z,8.79
2024-04-25T17:36:33.119Z,8.74
2024-04-25T17:38:59.993Z,8.37
2024-04-25T17:41:26.763Z,8.33
2024-04-25T17:43:53.652Z,8.61
2024-04-25T17:46:20.534Z,8.87
2024-04-25T17:48:47.518Z,8.75
2024-04-25T17:51:25.479Z,8.42
2024-04-25T17:53:53.175Z,8.42
2024-04-25T17:56:20.035Z,8.47
2024-04-25T17:58:46.702Z,8.23
2024-04-25T18:01:13.567Z,8.09
2024-04-25T18:03:40.272Z,8.13
2024-04-25T18:06:10.378Z,8.11
2024-04-25T18:08:38.128Z,8.01
2024-04-25T18:11:05.269Z,7.96
2024-04-25T18:13:33.209Z,8.05
2024-04-25T18:15:59.963Z,8.16
2024-04-25T18:18:27.815Z,7.74
2024-04-25T18:20:54.761Z,7.58
2024-04-25T18:23:21.525Z,7.55
2024-04-25T18:25:48.274Z,7.45
2024-04-25T18:28:15.678Z,7.55
2024-04-25T18:30:42.412Z,7.49
2024-04-25T18:33:09.303Z,7.43
2024-04-25T18:35:36.141Z,7.28
2024-04-25T18:38:03.369Z,7.12
2024-04-25T18:40:31.095Z,7.25
2024-04-25T18:42:59.082Z,7.20
2024-04-25T18:45:26.220Z,7.01
2024-04-25T18:47:53.732Z,6.89
2024-04-25T18:50:21.542Z,7.07
2024-04-25T18:52:48.910Z,7.11
2024-04-25T18:55:16.570Z,7.05
2024-04-25T18:57:44.282Z,6.92
2024-04-25T19:00:11.558Z,6.73
2024-04-25T19:02:39.044Z,6.70
2024-04-25T19:05:07.181Z,6.58
2024-04-25T19:07:34.349Z,6.66
2024-04-25T19:10:03.406Z,6.68
2024-04-25T19:12:31.011Z,6.38
2024-04-25T19:14:58.402Z,6.11
2024-04-25T19:17:27.850Z,6.02
2024-04-25T19:19:55.392Z,5.88
2024-04-25T19:22:24.895Z,5.79
2024-04-25T19:24:52.453Z,5.56
2024-04-25T19:27:19.824Z,5.68
2024-04-25T19:29:52.142Z,5.48
2024-04-25T19:32:20.066Z,5.65
2024-04-25T19:34:51.699Z,5.49
2024-04-25T19:37:19.404Z,5.29
2024-04-25T19:39:46.864Z,5.39
2024-04-25T19:42:19.753Z,5.45
2024-04-25T19:44:47.310Z,5.56
2024-04-25T19:47:15.034Z,5.44
2024-04-25T19:49:42.310Z,5.35
2024-04-25T19:52:10.272Z,5.35
2024-04-25T19:54:37.960Z,5.12
2024-04-25T19:57:05.339Z,5.03
2024-04-25T19:59:33.287Z,4.93
2024-04-25T20:02:01.860Z,4.90
2024-04-25T20:04:29.217Z,4.93
2024-04-25T20:06:56.704Z,5.20
2024-04-25T20:09:24.336Z,5.16
2024-04-25T20:11:52.019Z,5.30
2024-04-25T20:14:19.593Z,5.35
2024-04-25T20:16:47.327Z,5.31
2024-04-25T20:19:34.474Z,5.36
2024-04-25T20:22:01.745Z,5.37
2024-04-25T20:24:29.290Z,5.33
2024-04-25T20:26:56.614Z,5.37
2024-04-25T20:29:25.566Z,5.27
2024-04-25T20:31:53.448Z,5.24
2024-04-25T20:34:20.622Z,5.25
2024-04-25T20:36:47.444Z,5.24
2024-04-25T20:39:14.251Z,5.23
2024-04-25T20:41:43.057Z,5.11
2024-04-25T20:44:10.073Z,5.24
2024-04-25T20:46:36.941Z,5.32
2024-04-25T20:49:03.804Z,5.32
2024-04-25T20:51:31.858Z,5.28
2024-04-25T20:53:59.315Z,5.25
2024-04-25T20:56:27.263Z,5.23
2024-04-25T20:58:54.093Z,5.13
2024-04-25T21:01:20.915Z,5.19
2024-04-25T21:03:47.715Z,5.21
2024-04-25T21:06:14.471Z,5.08
2024-04-25T21:08:41.567Z,5.10
2024-04-25T21:11:09.066Z,5.15
2024-04-25T21:13:36.002Z,5.15
2024-04-25T21:16:02.806Z,5.13
2024-04-25T21:18:29.729Z,5.10
2024-04-25T21:20:58.240Z,5.18
2024-04-25T21:23:26.908Z,5.03
2024-04-25T21:25:59.355Z,5.13
2024-04-25T21:28:28.432Z,5.18
2024-04-25T21:30:55.214Z,5.02
2024-04-25T21:33:23.141Z,5.11
2024-04-25T21:35:50.254Z,5.21
2024-04-25T21:38:17.850Z,5.28
2024-04-25T21:40:44.881Z,5.25
2024-04-25T21:43:11.687Z,5.21
2024-04-25T21:45:39.058Z,5.19
2024-04-25T21:48:06.376Z,5.21
2024-04-25T21:50:33.303Z,5.28
2024-04-25T21:53:00.166Z,5.38
2024-04-25T21:55:26.933Z,5.35
2024-04-25T21:57:53.698Z,5.22
2024-04-25T22:00:20.583Z,5.36
2024-04-25T22:02:47.356Z,5.32
2024-04-25T22:05:14.296Z,5.42
2024-04-25T22:07:41.202Z,5.38
2024-04-25T22:10:07.956Z,5.26
2024-04-25T22:12:34.821Z,5.16
2024-04-25T22:15:01.622Z,5.21
2024-04-25T22:17:28.386Z,5.05
2024-04-25T22:19:55.144Z,5.05
2024-04-25T22:22:21.910Z,5.09
2024-04-25T22:24:48.713Z,5.07
2024-04-25T22:27:16.358Z,5.09
2024-04-25T22:29:43.239Z,5.07
2024-04-25T22:32:10.107Z,5.01
2024-04-25T22:34:37.247Z,5.05
2024-04-25T22:37:04.235Z,5.04
2024-04-25T22:39:31.055Z,5.05
2024-04-25T22:41:57.864Z,5.06
2024-04-25T22:44:25.384Z,4.97
2024-04-25T22:46:52.157Z,4.86
2024-04-25T22:49:19.007Z,4.86
2024-04-25T22:51:45.812Z,4.82
2024-04-25T22:54:12.576Z,4.76
2024-04-25T22:56:39.381Z,4.90
2024-04-25T22:59:06.302Z,4.86
2024-04-25T23:01:34.072Z,4.80
2024-04-25T23:04:01.012Z,4.83
2024-04-25T23:06:27.882Z,4.89
2024-04-25T23:08:54.719Z,4.92
2024-04-25T23:11:21.646Z,4.91
2024-04-25T23:13:48.480Z,4.98
2024-04-25T23:16:16.062Z,4.98
2024-04-25T23:18:42.964Z,5.05
2024-04-25T23:21:10.167Z,5.00
2024-04-25T23:23:36.962Z,5.09
2024-04-25T23:26:03.805Z,5.13
2024-04-25T23:28:30.527Z,5.05
2024-04-25T23:30:57.373Z,5.03
2024-04-25T23:33:24.521Z,5.05
2024-04-25T23:35:51.359Z,5.14
2024-04-25T23:38:18.773Z,5.11
2024-04-25T23:40:45.608Z,5.11
2024-04-25T23:43:12.578Z,5.13
2024-04-25T23:45:39.604Z,5.11
2024-04-25T23:48:06.742Z,5.14
2024-04-25T23:50:33.644Z,5.00
2024-04-25T23:53:00.553Z,5.08
2024-04-25T23:55:27.360Z,5.08
2024-04-25T23:57:54.118Z,5.08
